< Typhoon 199424 1994 Season Typhoon 199426 >
Typhoon 199425 (NAT)
General InformationTrack Information on Google MapsDetailed Wind InformationList of All Images || Disaster Info.ResourceGoogle EarthGE AnimationAtom FeedGeoJSON
Detalied Best Track (Time Zone = UTC)
Year Month Day Hour Lat. Long. Pressure (hPa) Wind (kt) Class Image Chart
1994 9 15 00 13.0 141.0 1002 0 2 Image Chart
1994 9 15 06 13.0 141.5 1002 0 2 Image Chart
1994 9 15 12 14.0 143.0 1002 0 2 Image Chart
1994 9 15 18 14.5 144.5 1000 0 2 Image Chart
1994 9 16 00 14.5 146.5 1000 0 2 Image Chart
1994 9 16 06 14.7 147.8 998 0 2 Image Chart
1994 9 16 12 15.0 149.0 998 0 2 Image Chart
1994 9 16 18 15.2 150.3 998 0 2 Image Chart
1994 9 17 00 15.5 151.5 998 0 2 Image Chart
1994 9 17 06 16.5 153.7 998 0 2 Image Chart
1994 9 17 12 18.5 155.6 998 0 2 Image Chart
1994 9 17 18 20.0 156.0 996 35 3 Image Chart
1994 9 18 00 20.9 156.2 996 35 3 Image Chart
1994 9 18 06 21.7 156.0 996 35 3 Image Chart
1994 9 18 12 22.7 155.7 996 35 3 Image Chart
1994 9 18 18 23.4 154.3 994 40 3 Image Chart
1994 9 19 00 23.8 152.6 994 40 3 Image Chart
1994 9 19 06 24.3 151.3 992 40 3 Image Chart
1994 9 19 12 24.8 150.8 992 40 3 Image Chart
1994 9 19 18 25.6 150.4 992 40 3 Image Chart
1994 9 20 00 26.3 150.1 994 40 3 Image Chart
1994 9 20 06 27.2 149.7 994 40 3 Image Chart
1994 9 20 12 28.0 149.2 994 40 3 Image Chart
1994 9 20 18 28.9 149.2 994 40 3 Image Chart
1994 9 21 00 29.4 149.6 994 40 3 Image Chart
1994 9 21 06 29.8 150.5 996 35 3 Image Chart
1994 9 21 12 30.2 151.2 1004 0 2 Image Chart
1994 9 21 18 30.6 151.6 1004 0 2 Image Chart
1994 9 22 00 31.0 152.0 1004 0 2 Image Chart
Japan Meteorological Agency Best Track Data | Correction Date : 1995-01-30
< Typhoon 199424 1994 Season Typhoon 199426 >

Help